sensor_id;sensor_type;location;lat;lon;timestamp;P1;durP1;ratioP1;P2;durP2;ratioP2
41631;SDS011;37452;51.938;4.624;2022-12-20T00:00:46;3.85;;;1.92;;
41631;SDS011;37452;51.938;4.624;2022-12-20T00:03:11;4.72;;;2.30;;
41631;SDS011;37452;51.938;4.624;2022-12-20T00:05:38;3.83;;;2.17;;
41631;SDS011;37452;51.938;4.624;2022-12-20T00:08:05;4.90;;;2.60;;
41631;SDS011;37452;51.938;4.624;2022-12-20T00:10:35;5.15;;;2.55;;
41631;SDS011;37452;51.938;4.624;2022-12-20T00:13:01;4.50;;;2.28;;
41631;SDS011;37452;51.938;4.624;2022-12-20T00:15:26;5.03;;;2.50;;
41631;SDS011;37452;51.938;4.624;2022-12-20T00:17:52;4.75;;;1.85;;
41631;SDS011;37452;51.938;4.624;2022-12-20T00:20:17;4.43;;;2.30;;
41631;SDS011;37452;51.938;4.624;2022-12-20T00:22:43;8.00;;;2.13;;
41631;SDS011;37452;51.938;4.624;2022-12-20T00:25:09;6.38;;;2.33;;
41631;SDS011;37452;51.938;4.624;2022-12-20T00:27:35;4.60;;;2.30;;
41631;SDS011;37452;51.938;4.624;2022-12-20T00:30:01;6.78;;;2.30;;
41631;SDS011;37452;51.938;4.624;2022-12-20T00:32:26;4.72;;;2.25;;
41631;SDS011;37452;51.938;4.624;2022-12-20T00:34:52;4.05;;;1.95;;
41631;SDS011;37452;51.938;4.624;2022-12-20T00:37:17;5.93;;;2.38;;
41631;SDS011;37452;51.938;4.624;2022-12-20T00:39:43;7.43;;;2.88;;
41631;SDS011;37452;51.938;4.624;2022-12-20T00:42:08;5.88;;;2.65;;
41631;SDS011;37452;51.938;4.624;2022-12-20T00:44:34;7.82;;;3.45;;
41631;SDS011;37452;51.938;4.624;2022-12-20T00:46:59;7.50;;;2.70;;
41631;SDS011;37452;51.938;4.624;2022-12-20T00:49:25;9.90;;;2.75;;
41631;SDS011;37452;51.938;4.624;2022-12-20T00:51:50;5.57;;;3.15;;
41631;SDS011;37452;51.938;4.624;2022-12-20T00:54:16;5.88;;;2.78;;
41631;SDS011;37452;51.938;4.624;2022-12-20T00:56:41;4.10;;;2.38;;
41631;SDS011;37452;51.938;4.624;2022-12-20T00:59:07;6.15;;;2.65;;
41631;SDS011;37452;51.938;4.624;2022-12-20T01:01:32;5.75;;;2.42;;
41631;SDS011;37452;51.938;4.624;2022-12-20T01:04:01;5.25;;;3.10;;
41631;SDS011;37452;51.938;4.624;2022-12-20T01:06:28;9.18;;;3.40;;
41631;SDS011;37452;51.938;4.624;2022-12-20T01:08:54;8.18;;;3.33;;
41631;SDS011;37452;51.938;4.624;2022-12-20T01:11:21;4.88;;;2.72;;
41631;SDS011;37452;51.938;4.624;2022-12-20T01:13:50;9.82;;;3.53;;
41631;SDS011;37452;51.938;4.624;2022-12-20T01:16:21;6.38;;;2.95;;
41631;SDS011;37452;51.938;4.624;2022-12-20T01:18:52;5.68;;;2.80;;
41631;SDS011;37452;51.938;4.624;2022-12-20T01:21:18;12.13;;;3.58;;
41631;SDS011;37452;51.938;4.624;2022-12-20T01:23:45;5.18;;;2.50;;
41631;SDS011;37452;51.938;4.624;2022-12-20T01:26:12;5.95;;;2.72;;
41631;SDS011;37452;51.938;4.624;2022-12-20T01:28:39;5.10;;;2.72;;
41631;SDS011;37452;51.938;4.624;2022-12-20T01:31:10;4.57;;;2.50;;
41631;SDS011;37452;51.938;4.624;2022-12-20T01:33:37;6.05;;;2.45;;
41631;SDS011;37452;51.938;4.624;2022-12-20T01:36:03;5.22;;;2.83;;
41631;SDS011;37452;51.938;4.624;2022-12-20T01:38:31;7.97;;;3.08;;
41631;SDS011;37452;51.938;4.624;2022-12-20T01:40:58;6.93;;;2.20;;
41631;SDS011;37452;51.938;4.624;2022-12-20T01:43:25;6.00;;;2.40;;
41631;SDS011;37452;51.938;4.624;2022-12-20T01:46:08;6.15;;;2.85;;
41631;SDS011;37452;51.938;4.624;2022-12-20T01:48:34;7.72;;;2.67;;
41631;SDS011;37452;51.938;4.624;2022-12-20T01:51:00;7.28;;;2.80;;
41631;SDS011;37452;51.938;4.624;2022-12-20T01:53:25;4.28;;;2.67;;
41631;SDS011;37452;51.938;4.624;2022-12-20T01:55:51;7.03;;;2.83;;
41631;SDS011;37452;51.938;4.624;2022-12-20T01:58:17;7.18;;;2.63;;
41631;SDS011;37452;51.938;4.624;2022-12-20T02:00:44;6.70;;;2.95;;
41631;SDS011;37452;51.938;4.624;2022-12-20T02:03:11;6.80;;;2.45;;
41631;SDS011;37452;51.938;4.624;2022-12-20T02:05:40;6.43;;;2.38;;
41631;SDS011;37452;51.938;4.624;2022-12-20T02:08:08;4.53;;;2.58;;
41631;SDS011;37452;51.938;4.624;2022-12-20T02:13:17;7.90;;;3.03;;
41631;SDS011;37452;51.938;4.624;2022-12-20T02:15:52;6.72;;;2.70;;
41631;SDS011;37452;51.938;4.624;2022-12-20T02:21:21;5.75;;;2.90;;
41631;SDS011;37452;51.938;4.624;2022-12-20T02:32:21;6.13;;;2.38;;
41631;SDS011;37452;51.938;4.624;2022-12-20T02:34:51;7.03;;;2.30;;
41631;SDS011;37452;51.938;4.624;2022-12-20T02:37:17;5.30;;;3.00;;
41631;SDS011;37452;51.938;4.624;2022-12-20T02:39:43;5.28;;;2.13;;
41631;SDS011;37452;51.938;4.624;2022-12-20T02:42:11;3.97;;;2.45;;
41631;SDS011;37452;51.938;4.624;2022-12-20T02:44:43;6.43;;;2.33;;
41631;SDS011;37452;51.938;4.624;2022-12-20T02:47:54;6.07;;;2.78;;
41631;SDS011;37452;51.938;4.624;2022-12-20T02:50:27;6.22;;;2.58;;
41631;SDS011;37452;51.938;4.624;2022-12-20T02:53:00;4.93;;;2.55;;
41631;SDS011;37452;51.938;4.624;2022-12-20T02:58:05;5.97;;;2.85;;
41631;SDS011;37452;51.938;4.624;2022-12-20T03:00:37;5.25;;;2.30;;
41631;SDS011;37452;51.938;4.624;2022-12-20T03:03:06;3.88;;;2.20;;
41631;SDS011;37452;51.938;4.624;2022-12-20T03:05:50;5.47;;;2.08;;
41631;SDS011;37452;51.938;4.624;2022-12-20T03:08:19;6.53;;;2.17;;
41631;SDS011;37452;51.938;4.624;2022-12-20T03:10:46;5.78;;;2.35;;
41631;SDS011;37452;51.938;4.624;2022-12-20T03:13:11;6.18;;;2.38;;
41631;SDS011;37452;51.938;4.624;2022-12-20T03:15:37;6.18;;;2.10;;
41631;SDS011;37452;51.938;4.624;2022-12-20T03:18:03;4.93;;;2.60;;
41631;SDS011;37452;51.938;4.624;2022-12-20T03:20:29;5.97;;;2.25;;
41631;SDS011;37452;51.938;4.624;2022-12-20T03:22:54;5.10;;;2.17;;
41631;SDS011;37452;51.938;4.624;2022-12-20T03:25:20;7.15;;;2.28;;
41631;SDS011;37452;51.938;4.624;2022-12-20T03:27:46;4.40;;;2.22;;
41631;SDS011;37452;51.938;4.624;2022-12-20T03:30:11;5.47;;;2.20;;
41631;SDS011;37452;51.938;4.624;2022-12-20T03:35:03;4.80;;;2.10;;
41631;SDS011;37452;51.938;4.624;2022-12-20T03:37:29;9.52;;;2.30;;
41631;SDS011;37452;51.938;4.624;2022-12-20T03:39:54;4.32;;;2.00;;
41631;SDS011;37452;51.938;4.624;2022-12-20T03:42:20;3.60;;;2.40;;
41631;SDS011;37452;51.938;4.624;2022-12-20T03:44:45;6.60;;;2.30;;
41631;SDS011;37452;51.938;4.624;2022-12-20T03:47:11;10.27;;;2.22;;
41631;SDS011;37452;51.938;4.624;2022-12-20T03:49:36;7.35;;;2.50;;
41631;SDS011;37452;51.938;4.624;2022-12-20T03:52:02;6.63;;;1.88;;
41631;SDS011;37452;51.938;4.624;2022-12-20T03:54:28;5.43;;;2.13;;
41631;SDS011;37452;51.938;4.624;2022-12-20T03:56:53;7.35;;;2.13;;
41631;SDS011;37452;51.938;4.624;2022-12-20T03:59:19;4.32;;;2.28;;
41631;SDS011;37452;51.938;4.624;2022-12-20T04:01:44;4.07;;;2.17;;
41631;SDS011;37452;51.938;4.624;2022-12-20T04:04:11;5.60;;;1.77;;
41631;SDS011;37452;51.938;4.624;2022-12-20T04:06:38;4.25;;;1.85;;
41631;SDS011;37452;51.938;4.624;2022-12-20T04:09:03;5.90;;;2.00;;
41631;SDS011;37452;51.938;4.624;2022-12-20T04:11:29;9.00;;;2.20;;
41631;SDS011;37452;51.938;4.624;2022-12-20T04:13:54;6.45;;;1.77;;
41631;SDS011;37452;51.938;4.624;2022-12-20T04:16:21;5.30;;;2.67;;
41631;SDS011;37452;51.938;4.624;2022-12-20T04:18:49;8.82;;;2.30;;
41631;SDS011;37452;51.938;4.624;2022-12-20T04:21:19;5.82;;;2.20;;
41631;SDS011;37452;51.938;4.624;2022-12-20T04:23:47;5.03;;;2.35;;
41631;SDS011;37452;51.938;4.624;2022-12-20T04:26:12;8.82;;;2.47;;
41631;SDS011;37452;51.938;4.624;2022-12-20T04:28:38;6.13;;;2.72;;
41631;SDS011;37452;51.938;4.624;2022-12-20T04:31:03;7.13;;;2.55;;
41631;SDS011;37452;51.938;4.624;2022-12-20T04:33:29;4.43;;;2.63;;
41631;SDS011;37452;51.938;4.624;2022-12-20T04:35:54;6.65;;;3.25;;
41631;SDS011;37452;51.938;4.624;2022-12-20T04:38:20;10.35;;;2.92;;
41631;SDS011;37452;51.938;4.624;2022-12-20T04:43:15;7.57;;;2.63;;
41631;SDS011;37452;51.938;4.624;2022-12-20T04:45:41;6.22;;;2.90;;
41631;SDS011;37452;51.938;4.624;2022-12-20T04:48:08;7.28;;;2.75;;
41631;SDS011;37452;51.938;4.624;2022-12-20T04:50:33;8.20;;;3.10;;
41631;SDS011;37452;51.938;4.624;2022-12-20T04:52:59;6.85;;;3.08;;
41631;SDS011;37452;51.938;4.624;2022-12-20T04:55:43;4.85;;;2.63;;
41631;SDS011;37452;51.938;4.624;2022-12-20T04:58:09;6.28;;;2.72;;
41631;SDS011;37452;51.938;4.624;2022-12-20T05:00:34;4.85;;;2.97;;
41631;SDS011;37452;51.938;4.624;2022-12-20T05:03:00;7.10;;;3.42;;
41631;SDS011;37452;51.938;4.624;2022-12-20T05:05:26;6.20;;;2.60;;
41631;SDS011;37452;51.938;4.624;2022-12-20T05:07:52;8.40;;;2.78;;
41631;SDS011;37452;51.938;4.624;2022-12-20T05:10:18;3.45;;;2.15;;
41631;SDS011;37452;51.938;4.624;2022-12-20T05:12:43;5.65;;;2.30;;
41631;SDS011;37452;51.938;4.624;2022-12-20T05:15:09;4.60;;;1.98;;
41631;SDS011;37452;51.938;4.624;2022-12-20T05:17:36;3.33;;;2.20;;
41631;SDS011;37452;51.938;4.624;2022-12-20T05:20:01;4.00;;;1.90;;
41631;SDS011;37452;51.938;4.624;2022-12-20T05:22:27;5.20;;;2.30;;
41631;SDS011;37452;51.938;4.624;2022-12-20T05:25:12;4.47;;;2.30;;
41631;SDS011;37452;51.938;4.624;2022-12-20T05:27:56;6.15;;;3.15;;
41631;SDS011;37452;51.938;4.624;2022-12-20T05:30:23;6.53;;;3.08;;
41631;SDS011;37452;51.938;4.624;2022-12-20T05:32:49;4.78;;;2.63;;
41631;SDS011;37452;51.938;4.624;2022-12-20T05:35:14;5.47;;;2.30;;
41631;SDS011;37452;51.938;4.624;2022-12-20T05:37:40;6.43;;;2.97;;
41631;SDS011;37452;51.938;4.624;2022-12-20T05:40:06;5.18;;;2.70;;
41631;SDS011;37452;51.938;4.624;2022-12-20T05:44:57;7.13;;;2.75;;
41631;SDS011;37452;51.938;4.624;2022-12-20T05:47:24;9.40;;;2.97;;
41631;SDS011;37452;51.938;4.624;2022-12-20T05:49:50;8.15;;;2.33;;
41631;SDS011;37452;51.938;4.624;2022-12-20T05:52:15;3.95;;;1.98;;
41631;SDS011;37452;51.938;4.624;2022-12-20T05:54:41;6.90;;;2.65;;
41631;SDS011;37452;51.938;4.624;2022-12-20T05:57:07;5.85;;;2.33;;
41631;SDS011;37452;51.938;4.624;2022-12-20T05:59:32;5.40;;;2.40;;
41631;SDS011;37452;51.938;4.624;2022-12-20T06:01:58;6.88;;;2.70;;
41631;SDS011;37452;51.938;4.624;2022-12-20T06:04:23;6.85;;;2.33;;
41631;SDS011;37452;51.938;4.624;2022-12-20T06:06:49;5.25;;;2.30;;
41631;SDS011;37452;51.938;4.624;2022-12-20T06:09:15;5.95;;;2.38;;
41631;SDS011;37452;51.938;4.624;2022-12-20T06:11:40;5.10;;;2.72;;
41631;SDS011;37452;51.938;4.624;2022-12-20T06:14:06;5.65;;;2.30;;
41631;SDS011;37452;51.938;4.624;2022-12-20T06:16:31;8.82;;;2.25;;
41631;SDS011;37452;51.938;4.624;2022-12-20T06:18:57;5.10;;;2.15;;
41631;SDS011;37452;51.938;4.624;2022-12-20T06:21:22;6.10;;;2.13;;
41631;SDS011;37452;51.938;4.624;2022-12-20T06:23:48;4.55;;;2.10;;
41631;SDS011;37452;51.938;4.624;2022-12-20T06:26:14;6.68;;;2.05;;
41631;SDS011;37452;51.938;4.624;2022-12-20T06:28:39;3.42;;;1.95;;
41631;SDS011;37452;51.938;4.624;2022-12-20T06:31:08;7.55;;;2.28;;
41631;SDS011;37452;51.938;4.624;2022-12-20T06:33:35;4.53;;;2.05;;
41631;SDS011;37452;51.938;4.624;2022-12-20T06:38:26;4.90;;;1.63;;
41631;SDS011;37452;51.938;4.624;2022-12-20T06:40:52;4.93;;;1.80;;
41631;SDS011;37452;51.938;4.624;2022-12-20T06:43:17;5.53;;;1.63;;
41631;SDS011;37452;51.938;4.624;2022-12-20T06:45:43;3.88;;;1.67;;
41631;SDS011;37452;51.938;4.624;2022-12-20T06:48:09;5.50;;;1.98;;
41631;SDS011;37452;51.938;4.624;2022-12-20T06:50:34;3.58;;;2.05;;
41631;SDS011;37452;51.938;4.624;2022-12-20T06:53:00;2.50;;;1.23;;
41631;SDS011;37452;51.938;4.624;2022-12-20T06:55:25;5.82;;;1.95;;
41631;SDS011;37452;51.938;4.624;2022-12-20T06:57:51;5.72;;;1.33;;
41631;SDS011;37452;51.938;4.624;2022-12-20T07:00:17;4.40;;;1.65;;
41631;SDS011;37452;51.938;4.624;2022-12-20T07:05:09;9.15;;;1.98;;
41631;SDS011;37452;51.938;4.624;2022-12-20T07:07:35;5.30;;;1.85;;
41631;SDS011;37452;51.938;4.624;2022-12-20T07:10:00;6.03;;;2.10;;
41631;SDS011;37452;51.938;4.624;2022-12-20T07:12:26;3.47;;;1.80;;
41631;SDS011;37452;51.938;4.624;2022-12-20T07:14:51;4.22;;;1.90;;
41631;SDS011;37452;51.938;4.624;2022-12-20T07:17:17;2.88;;;1.30;;
41631;SDS011;37452;51.938;4.624;2022-12-20T07:19:42;4.55;;;1.65;;
41631;SDS011;37452;51.938;4.624;2022-12-20T07:22:08;5.53;;;1.63;;
41631;SDS011;37452;51.938;4.624;2022-12-20T07:24:34;4.60;;;2.20;;
41631;SDS011;37452;51.938;4.624;2022-12-20T07:26:59;3.75;;;1.83;;
41631;SDS011;37452;51.938;4.624;2022-12-20T07:29:26;3.92;;;1.45;;
41631;SDS011;37452;51.938;4.624;2022-12-20T07:31:52;3.88;;;1.35;;
41631;SDS011;37452;51.938;4.624;2022-12-20T07:34:17;3.85;;;1.92;;
41631;SDS011;37452;51.938;4.624;2022-12-20T07:36:43;3.40;;;1.40;;
41631;SDS011;37452;51.938;4.624;2022-12-20T07:39:09;5.03;;;2.70;;
41631;SDS011;37452;51.938;4.624;2022-12-20T07:41:35;3.22;;;1.73;;
41631;SDS011;37452;51.938;4.624;2022-12-20T07:44:00;5.57;;;1.67;;
41631;SDS011;37452;51.938;4.624;2022-12-20T07:46:26;3.95;;;1.90;;
41631;SDS011;37452;51.938;4.624;2022-12-20T07:48:52;7.28;;;2.20;;
41631;SDS011;37452;51.938;4.624;2022-12-20T07:51:18;6.30;;;2.15;;
41631;SDS011;37452;51.938;4.624;2022-12-20T07:53:48;3.33;;;1.77;;
41631;SDS011;37452;51.938;4.624;2022-12-20T07:56:18;6.03;;;2.30;;
41631;SDS011;37452;51.938;4.624;2022-12-20T07:58:46;7.65;;;2.85;;
41631;SDS011;37452;51.938;4.624;2022-12-20T08:01:15;4.10;;;2.03;;
41631;SDS011;37452;51.938;4.624;2022-12-20T08:06:25;11.63;;;5.85;;
41631;SDS011;37452;51.938;4.624;2022-12-20T08:08:51;8.35;;;2.22;;
41631;SDS011;37452;51.938;4.624;2022-12-20T08:11:21;3.50;;;1.75;;
41631;SDS011;37452;51.938;4.624;2022-12-20T08:13:49;6.43;;;2.42;;
41631;SDS011;37452;51.938;4.624;2022-12-20T08:16:15;5.00;;;2.08;;
41631;SDS011;37452;51.938;4.624;2022-12-20T08:18:41;5.05;;;1.80;;
41631;SDS011;37452;51.938;4.624;2022-12-20T08:21:07;6.70;;;1.63;;
41631;SDS011;37452;51.938;4.624;2022-12-20T08:23:32;4.18;;;1.95;;
41631;SDS011;37452;51.938;4.624;2022-12-20T08:28:24;4.82;;;2.35;;
41631;SDS011;37452;51.938;4.624;2022-12-20T08:30:50;7.00;;;1.77;;
41631;SDS011;37452;51.938;4.624;2022-12-20T08:33:16;6.82;;;2.00;;
41631;SDS011;37452;51.938;4.624;2022-12-20T08:35:41;7.88;;;2.03;;
41631;SDS011;37452;51.938;4.624;2022-12-20T08:38:07;4.32;;;1.95;;
41631;SDS011;37452;51.938;4.624;2022-12-20T08:40:32;4.80;;;2.35;;
41631;SDS011;37452;51.938;4.624;2022-12-20T08:42:58;6.70;;;2.20;;
41631;SDS011;37452;51.938;4.624;2022-12-20T08:45:24;3.08;;;1.70;;
41631;SDS011;37452;51.938;4.624;2022-12-20T08:47:49;6.97;;;2.40;;
41631;SDS011;37452;51.938;4.624;2022-12-20T08:50:15;5.43;;;2.00;;
41631;SDS011;37452;51.938;4.624;2022-12-20T08:52:40;7.03;;;2.47;;
41631;SDS011;37452;51.938;4.624;2022-12-20T08:55:06;7.22;;;2.40;;
41631;SDS011;37452;51.938;4.624;2022-12-20T08:57:31;3.67;;;1.90;;
41631;SDS011;37452;51.938;4.624;2022-12-20T08:59:57;4.22;;;1.92;;
41631;SDS011;37452;51.938;4.624;2022-12-20T09:02:22;7.75;;;2.25;;
41631;SDS011;37452;51.938;4.624;2022-12-20T09:04:48;6.13;;;2.45;;
41631;SDS011;37452;51.938;4.624;2022-12-20T09:07:14;5.60;;;2.58;;
41631;SDS011;37452;51.938;4.624;2022-12-20T09:09:39;6.40;;;2.22;;
41631;SDS011;37452;51.938;4.624;2022-12-20T09:12:05;6.43;;;3.00;;
41631;SDS011;37452;51.938;4.624;2022-12-20T09:14:31;6.53;;;2.70;;
41631;SDS011;37452;51.938;4.624;2022-12-20T09:16:57;7.25;;;5.22;;
41631;SDS011;37452;51.938;4.624;2022-12-20T09:19:22;8.73;;;3.80;;
41631;SDS011;37452;51.938;4.624;2022-12-20T09:21:48;12.68;;;4.78;;
41631;SDS011;37452;51.938;4.624;2022-12-20T09:24:13;9.80;;;4.07;;
41631;SDS011;37452;51.938;4.624;2022-12-20T09:26:38;10.93;;;5.65;;
41631;SDS011;37452;51.938;4.624;2022-12-20T09:29:04;14.88;;;6.53;;
41631;SDS011;37452;51.938;4.624;2022-12-20T09:31:30;11.68;;;6.28;;
41631;SDS011;37452;51.938;4.624;2022-12-20T09:33:56;13.65;;;4.38;;
41631;SDS011;37452;51.938;4.624;2022-12-20T09:36:23;7.70;;;4.35;;
41631;SDS011;37452;51.938;4.624;2022-12-20T09:38:50;9.57;;;4.95;;
41631;SDS011;37452;51.938;4.624;2022-12-20T09:43:56;12.32;;;5.68;;
41631;SDS011;37452;51.938;4.624;2022-12-20T09:46:22;6.82;;;3.97;;
41631;SDS011;37452;51.938;4.624;2022-12-20T09:48:49;9.02;;;4.90;;
41631;SDS011;37452;51.938;4.624;2022-12-20T09:51:26;6.88;;;3.08;;
41631;SDS011;37452;51.938;4.624;2022-12-20T09:56:37;6.95;;;3.70;;
41631;SDS011;37452;51.938;4.624;2022-12-20T09:59:12;10.80;;;3.33;;
41631;SDS011;37452;51.938;4.624;2022-12-20T10:01:42;6.25;;;3.30;;
41631;SDS011;37452;51.938;4.624;2022-12-20T10:06:56;6.72;;;3.30;;
41631;SDS011;37452;51.938;4.624;2022-12-20T10:12:46;9.98;;;3.53;;
41631;SDS011;37452;51.938;4.624;2022-12-20T10:15:21;6.68;;;2.92;;
41631;SDS011;37452;51.938;4.624;2022-12-20T10:25:47;7.70;;;3.50;;
41631;SDS011;37452;51.938;4.624;2022-12-20T10:28:15;7.85;;;3.60;;
41631;SDS011;37452;51.938;4.624;2022-12-20T10:30:41;7.50;;;3.53;;
41631;SDS011;37452;51.938;4.624;2022-12-20T10:33:13;6.80;;;3.58;;
41631;SDS011;37452;51.938;4.624;2022-12-20T10:35:44;10.32;;;3.85;;
41631;SDS011;37452;51.938;4.624;2022-12-20T10:38:11;9.25;;;3.20;;
41631;SDS011;37452;51.938;4.624;2022-12-20T10:43:20;10.20;;;3.72;;
41631;SDS011;37452;51.938;4.624;2022-12-20T10:46:03;7.65;;;3.28;;
41631;SDS011;37452;51.938;4.624;2022-12-20T10:48:34;10.73;;;4.38;;
41631;SDS011;37452;51.938;4.624;2022-12-20T10:53:36;12.68;;;4.13;;
41631;SDS011;37452;51.938;4.624;2022-12-20T11:01:44;8.13;;;4.43;;
41631;SDS011;37452;51.938;4.624;2022-12-20T11:04:26;11.23;;;4.50;;
41631;SDS011;37452;51.938;4.624;2022-12-20T11:06:52;7.82;;;4.22;;
41631;SDS011;37452;51.938;4.624;2022-12-20T11:11:56;7.33;;;3.57;;
41631;SDS011;37452;51.938;4.624;2022-12-20T11:14:26;6.43;;;3.88;;
41631;SDS011;37452;51.938;4.624;2022-12-20T11:16:53;11.00;;;4.25;;
41631;SDS011;37452;51.938;4.624;2022-12-20T11:35:38;9.95;;;4.15;;
41631;SDS011;37452;51.938;4.624;2022-12-20T11:38:52;8.60;;;4.47;;
41631;SDS011;37452;51.938;4.624;2022-12-20T11:56:25;8.07;;;3.70;;
41631;SDS011;37452;51.938;4.624;2022-12-20T11:59:17;8.20;;;3.78;;
41631;SDS011;37452;51.938;4.624;2022-12-20T12:04:50;8.27;;;3.47;;
41631;SDS011;37452;51.938;4.624;2022-12-20T12:07:22;7.03;;;3.65;;
41631;SDS011;37452;51.938;4.624;2022-12-20T12:12:23;7.93;;;3.38;;
41631;SDS011;37452;51.938;4.624;2022-12-20T12:14:56;7.22;;;3.70;;
41631;SDS011;37452;51.938;4.624;2022-12-20T12:17:46;11.85;;;3.65;;
41631;SDS011;37452;51.938;4.624;2022-12-20T12:20:21;4.85;;;3.28;;
41631;SDS011;37452;51.938;4.624;2022-12-20T12:22:47;7.43;;;3.80;;
41631;SDS011;37452;51.938;4.624;2022-12-20T12:25:17;8.30;;;3.97;;
41631;SDS011;37452;51.938;4.624;2022-12-20T12:27:43;9.25;;;3.85;;
41631;SDS011;37452;51.938;4.624;2022-12-20T12:30:13;7.28;;;3.25;;
41631;SDS011;37452;51.938;4.624;2022-12-20T12:32:47;10.05;;;4.15;;
41631;SDS011;37452;51.938;4.624;2022-12-20T12:38:04;8.98;;;3.80;;
41631;SDS011;37452;51.938;4.624;2022-12-20T12:45:57;6.82;;;4.10;;
41631;SDS011;37452;51.938;4.624;2022-12-20T12:51:27;8.20;;;4.70;;
41631;SDS011;37452;51.938;4.624;2022-12-20T12:59:22;14.77;;;4.03;;
41631;SDS011;37452;51.938;4.624;2022-12-20T13:11:50;6.25;;;3.50;;
41631;SDS011;37452;51.938;4.624;2022-12-20T13:16:45;7.32;;;3.60;;
41631;SDS011;37452;51.938;4.624;2022-12-20T13:21:39;6.25;;;3.67;;
41631;SDS011;37452;51.938;4.624;2022-12-20T13:48:27;8.45;;;3.78;;
41631;SDS011;37452;51.938;4.624;2022-12-20T13:51:00;11.60;;;4.50;;
41631;SDS011;37452;51.938;4.624;2022-12-20T13:53:26;6.47;;;4.57;;
41631;SDS011;37452;51.938;4.624;2022-12-20T13:55:52;6.85;;;4.47;;
41631;SDS011;37452;51.938;4.624;2022-12-20T14:00:52;6.40;;;3.92;;
41631;SDS011;37452;51.938;4.624;2022-12-20T14:05:44;7.78;;;4.40;;
41631;SDS011;37452;51.938;4.624;2022-12-20T14:08:14;7.07;;;3.80;;
41631;SDS011;37452;51.938;4.624;2022-12-20T14:10:41;7.95;;;4.40;;
41631;SDS011;37452;51.938;4.624;2022-12-20T14:13:40;6.88;;;4.57;;
41631;SDS011;37452;51.938;4.624;2022-12-20T14:16:05;7.30;;;4.40;;
41631;SDS011;37452;51.938;4.624;2022-12-20T14:18:46;7.22;;;4.15;;
41631;SDS011;37452;51.938;4.624;2022-12-20T14:21:21;8.77;;;4.70;;
41631;SDS011;37452;51.938;4.624;2022-12-20T14:23:47;9.27;;;4.65;;
41631;SDS011;37452;51.938;4.624;2022-12-20T14:26:17;8.35;;;4.93;;
41631;SDS011;37452;51.938;4.624;2022-12-20T14:28:49;6.93;;;4.82;;
41631;SDS011;37452;51.938;4.624;2022-12-20T14:31:27;5.90;;;4.10;;
41631;SDS011;37452;51.938;4.624;2022-12-20T14:36:37;8.07;;;4.50;;
41631;SDS011;37452;51.938;4.624;2022-12-20T14:42:01;7.70;;;4.90;;
41631;SDS011;37452;51.938;4.624;2022-12-20T14:44:37;11.02;;;5.43;;
41631;SDS011;37452;51.938;4.624;2022-12-20T14:47:10;9.45;;;5.10;;
41631;SDS011;37452;51.938;4.624;2022-12-20T14:49:39;9.20;;;5.90;;
41631;SDS011;37452;51.938;4.624;2022-12-20T14:54:58;10.10;;;5.40;;
41631;SDS011;37452;51.938;4.624;2022-12-20T14:57:27;10.07;;;5.63;;
41631;SDS011;37452;51.938;4.624;2022-12-20T15:05:06;10.18;;;5.32;;
41631;SDS011;37452;51.938;4.624;2022-12-20T15:07:50;8.88;;;5.75;;
41631;SDS011;37452;51.938;4.624;2022-12-20T15:10:15;9.82;;;5.40;;
41631;SDS011;37452;51.938;4.624;2022-12-20T15:12:41;10.65;;;5.60;;
41631;SDS011;37452;51.938;4.624;2022-12-20T15:15:10;9.88;;;6.00;;
41631;SDS011;37452;51.938;4.624;2022-12-20T15:17:39;8.73;;;5.70;;
41631;SDS011;37452;51.938;4.624;2022-12-20T15:20:05;9.18;;;5.32;;
41631;SDS011;37452;51.938;4.624;2022-12-20T15:22:36;10.05;;;5.18;;
41631;SDS011;37452;51.938;4.624;2022-12-20T15:25:04;10.43;;;6.28;;
41631;SDS011;37452;51.938;4.624;2022-12-20T15:27:40;12.25;;;7.53;;
41631;SDS011;37452;51.938;4.624;2022-12-20T15:30:09;8.55;;;5.82;;
41631;SDS011;37452;51.938;4.624;2022-12-20T15:32:37;9.52;;;6.00;;
41631;SDS011;37452;51.938;4.624;2022-12-20T15:35:04;10.07;;;5.75;;
41631;SDS011;37452;51.938;4.624;2022-12-20T15:37:30;13.93;;;6.38;;
41631;SDS011;37452;51.938;4.624;2022-12-20T15:39:55;10.25;;;6.45;;
41631;SDS011;37452;51.938;4.624;2022-12-20T15:42:20;9.15;;;6.05;;
41631;SDS011;37452;51.938;4.624;2022-12-20T15:44:47;9.73;;;6.22;;
41631;SDS011;37452;51.938;4.624;2022-12-20T15:47:13;9.27;;;6.10;;
41631;SDS011;37452;51.938;4.624;2022-12-20T15:49:39;9.98;;;6.65;;
41631;SDS011;37452;51.938;4.624;2022-12-20T15:52:05;8.82;;;5.82;;
41631;SDS011;37452;51.938;4.624;2022-12-20T15:54:34;12.80;;;6.82;;
41631;SDS011;37452;51.938;4.624;2022-12-20T15:57:05;9.40;;;6.03;;
41631;SDS011;37452;51.938;4.624;2022-12-20T15:59:34;10.48;;;7.00;;
41631;SDS011;37452;51.938;4.624;2022-12-20T16:04:25;11.85;;;6.97;;
41631;SDS011;37452;51.938;4.624;2022-12-20T16:06:52;19.95;;;10.23;;
41631;SDS011;37452;51.938;4.624;2022-12-20T16:11:45;15.88;;;8.88;;
41631;SDS011;37452;51.938;4.624;2022-12-20T16:14:12;10.63;;;6.60;;
41631;SDS011;37452;51.938;4.624;2022-12-20T16:16:40;15.00;;;7.93;;
41631;SDS011;37452;51.938;4.624;2022-12-20T16:19:06;13.30;;;7.47;;
41631;SDS011;37452;51.938;4.624;2022-12-20T16:21:34;11.30;;;6.70;;
41631;SDS011;37452;51.938;4.624;2022-12-20T16:24:05;12.00;;;6.22;;
41631;SDS011;37452;51.938;4.624;2022-12-20T16:26:30;16.05;;;8.57;;
41631;SDS011;37452;51.938;4.624;2022-12-20T16:28:57;12.57;;;7.45;;
41631;SDS011;37452;51.938;4.624;2022-12-20T16:31:31;10.80;;;6.63;;
41631;SDS011;37452;51.938;4.624;2022-12-20T16:34:00;12.40;;;7.18;;
41631;SDS011;37452;51.938;4.624;2022-12-20T16:36:27;10.55;;;6.53;;
41631;SDS011;37452;51.938;4.624;2022-12-20T16:41:20;10.95;;;6.85;;
41631;SDS011;37452;51.938;4.624;2022-12-20T16:43:52;12.15;;;7.22;;
41631;SDS011;37452;51.938;4.624;2022-12-20T16:46:20;9.93;;;7.15;;
41631;SDS011;37452;51.938;4.624;2022-12-20T16:48:50;10.95;;;7.57;;
41631;SDS011;37452;51.938;4.624;2022-12-20T16:53:49;11.80;;;7.80;;
41631;SDS011;37452;51.938;4.624;2022-12-20T16:56:16;13.15;;;7.75;;
41631;SDS011;37452;51.938;4.624;2022-12-20T17:01:17;13.65;;;8.57;;
41631;SDS011;37452;51.938;4.624;2022-12-20T17:03:44;13.35;;;7.97;;
41631;SDS011;37452;51.938;4.624;2022-12-20T17:06:11;13.23;;;7.75;;
41631;SDS011;37452;51.938;4.624;2022-12-20T17:08:38;14.70;;;8.95;;
41631;SDS011;37452;51.938;4.624;2022-12-20T17:11:23;16.10;;;8.85;;
41631;SDS011;37452;51.938;4.624;2022-12-20T17:13:54;12.07;;;7.90;;
41631;SDS011;37452;51.938;4.624;2022-12-20T17:16:20;14.95;;;9.13;;
41631;SDS011;37452;51.938;4.624;2022-12-20T17:18:47;15.70;;;9.48;;
41631;SDS011;37452;51.938;4.624;2022-12-20T17:23:43;17.60;;;9.95;;
41631;SDS011;37452;51.938;4.624;2022-12-20T17:26:13;16.48;;;9.57;;
41631;SDS011;37452;51.938;4.624;2022-12-20T17:28:40;15.95;;;9.73;;
41631;SDS011;37452;51.938;4.624;2022-12-20T17:31:27;17.02;;;10.60;;
41631;SDS011;37452;51.938;4.624;2022-12-20T17:34:42;17.90;;;10.98;;
41631;SDS011;37452;51.938;4.624;2022-12-20T17:36:51;20.25;;;11.35;;
41631;SDS011;37452;51.938;4.624;2022-12-20T17:39:18;19.60;;;11.57;;
41631;SDS011;37452;51.938;4.624;2022-12-20T17:41:44;20.92;;;11.50;;
41631;SDS011;37452;51.938;4.624;2022-12-20T17:44:21;19.08;;;11.55;;
41631;SDS011;37452;51.938;4.624;2022-12-20T17:46:52;21.30;;;11.88;;
41631;SDS011;37452;51.938;4.624;2022-12-20T17:49:18;20.20;;;11.57;;
41631;SDS011;37452;51.938;4.624;2022-12-20T17:51:44;18.65;;;11.32;;
41631;SDS011;37452;51.938;4.624;2022-12-20T17:56:43;19.08;;;11.65;;
41631;SDS011;37452;51.938;4.624;2022-12-20T17:59:09;22.30;;;12.45;;
41631;SDS011;37452;51.938;4.624;2022-12-20T18:01:36;23.98;;;12.25;;
41631;SDS011;37452;51.938;4.624;2022-12-20T18:04:06;21.27;;;13.18;;